メインページ
METAR-TAF:

METAR-TAF

空港 :

東京国際空港

東京 / 羽田国際空港, 日本

緯度: 35-33N, 経度: 139-47E, 海抜: 5m

現時点の気象観測

当レポートは24分前の23:30(UTC)に作成
東/北東の風 7kt
気温 23°C
湿度 94%
気圧 1014 hPa
視程10km以上
高度400ftの雲はほとんどない
高度2000ftの雲は散在している
高度5000ftの千切れ雲あり
弱いにわか雨

METAR: RJTT 242330Z 07007KT 9999 -SHRA FEW004 SCT020 BKN050 23/22 Q1014 BECMG 04008KT TEMPO 4000 -SHRA BR

時間: 08:54 (23:54 UTC)

予報

当レポートは44分前の23:10(UTC)に作成
予報は25日の 00時(UTC)から 26日の 06時(UTC)まで有効
北/北東の風 14kt
視程: 6000m
高度800ftの雲はほとんどない
高度1200ftの千切れ雲あり
弱いにわか雨
25日の 00時(UTC)から 25日の 04時(UTC)まで一時的に
視程: 4000m
高度500ftの雲はほとんどない
高度800ftの千切れ雲あり
にわか雨, 靄
25日の 04時(UTC)から 25日の 09時(UTC)まで一時的に
視程: 3000m
高度500ftの雲はほとんどない
高度800ftの千切れ雲あり
にわか雨, 靄
25日の 09時(UTC)から 25日の 12時(UTC)まで一時的に
視程: 4000m
高度500ftの雲はほとんどない
高度800ftの千切れ雲あり
弱いにわか雨, 靄
26日の 03時(UTC)から 26日の 06時(UTC)まで一時的に
視程: 4000m
高度500ftの雲はほとんどない
高度800ftの千切れ雲あり
にわか雨, 靄

TAF: RJTT 242310Z 2500/2606 02014KT 6000 -SHRA FEW008 BKN012 TEMPO 2500/2504 4000 SHRA BR FEW005 BKN008 TEMPO 2504/2509 3000 SHRA BR FEW005 BKN008 TEMPO 2509/2512 4000 -SHRA BR FEW005 BKN008 TEMPO 2603/2606 4000 SHRA BR FEW005 BKN008

4,000以上の空港の気象観測と天気予報(METAR報とTAF報)

利用可能な観測所は地図上に黄色い丸と赤い丸で示す。

丸の上にカーソルを重ねると観測所名を参照できる。

次にクリックすると気象観測と天気予報を参照できる。

マップの切り替え:黒色「×」印の緑ボタンをクリックして拡大、「-」印の緑ボタンをクリックして縮小、緑色の三角印をクリックして隣りの地図に切り替え


METAR-TAF: